createdAt,value
2024-02-10T00:01:29.126Z,6.60
2024-02-10T00:03:57.796Z,6.70
2024-02-10T00:06:25.026Z,6.60
2024-02-10T00:08:52.262Z,6.60
2024-02-10T00:11:19.164Z,6.70
2024-02-10T00:13:46.195Z,6.70
2024-02-10T00:16:13.349Z,6.70
2024-02-10T00:18:42.208Z,6.70
2024-02-10T00:21:09.371Z,6.70
2024-02-10T00:23:36.392Z,6.70
2024-02-10T00:26:05.681Z,6.70
2024-02-10T00:28:36.546Z,6.70
2024-02-10T00:31:03.583Z,6.70
2024-02-10T00:33:32.094Z,6.70
2024-02-10T00:35:59.160Z,6.70
2024-02-10T00:38:28.363Z,6.70
2024-02-10T00:40:55.524Z,6.70
2024-02-10T00:43:22.796Z,6.70
2024-02-10T00:45:49.646Z,6.70
2024-02-10T00:48:17.070Z,6.70
2024-02-10T00:50:46.538Z,6.70
2024-02-10T00:53:13.439Z,6.70
2024-02-10T00:55:40.325Z,6.80
2024-02-10T00:58:07.675Z,6.80
2024-02-10T01:00:35.522Z,6.80
2024-02-10T01:03:04.013Z,6.80
2024-02-10T01:05:31.680Z,6.80
2024-02-10T01:08:01.326Z,6.70
2024-02-10T01:10:32.192Z,6.80
2024-02-10T01:13:04.691Z,6.80
2024-02-10T01:15:34.052Z,6.80
2024-02-10T01:18:05.431Z,6.80
2024-02-10T01:20:32.497Z,6.80
2024-02-10T01:23:01.097Z,6.70
2024-02-10T01:25:31.592Z,6.70
2024-02-10T01:27:59.772Z,6.80
2024-02-10T01:30:27.922Z,6.80
2024-02-10T01:32:59.640Z,6.80
2024-02-10T01:35:27.031Z,6.80
2024-02-10T01:37:54.040Z,6.80
2024-02-10T01:40:21.289Z,6.90
2024-02-10T01:42:48.342Z,6.80
2024-02-10T01:45:15.802Z,6.80
2024-02-10T01:47:47.280Z,6.80
2024-02-10T01:50:15.231Z,6.90
2024-02-10T01:52:42.688Z,6.80
2024-02-10T01:55:11.589Z,6.80
2024-02-10T01:57:39.624Z,6.90
2024-02-10T02:00:08.277Z,6.90
2024-02-10T02:02:35.403Z,6.90
2024-02-10T02:05:05.724Z,6.90
2024-02-10T02:07:33.313Z,6.90
2024-02-10T02:10:03.704Z,6.90
2024-02-10T02:12:32.766Z,6.90
2024-02-10T02:15:00.382Z,6.90
2024-02-10T02:17:27.425Z,6.90
2024-02-10T02:19:54.454Z,6.90
2024-02-10T02:22:21.572Z,6.90
2024-02-10T02:24:49.068Z,6.90
2024-02-10T02:27:16.435Z,6.90
2024-02-10T02:29:43.763Z,6.90
2024-02-10T02:32:12.112Z,6.90
2024-02-10T02:34:39.842Z,6.90
2024-02-10T02:37:08.528Z,6.90
2024-02-10T02:39:37.406Z,6.90
2024-02-10T02:42:06.911Z,6.90
2024-02-10T02:44:34.317Z,7.00
2024-02-10T02:47:06.639Z,6.90
2024-02-10T02:49:34.622Z,6.90
2024-02-10T02:52:01.916Z,7.00
2024-02-10T02:54:32.801Z,7.00
2024-02-10T02:57:01.762Z,7.00
2024-02-10T02:59:28.885Z,7.00
2024-02-10T03:01:56.320Z,7.00
2024-02-10T03:04:24.328Z,7.00
2024-02-10T03:06:52.270Z,7.00
2024-02-10T03:09:19.670Z,7.00
2024-02-10T03:11:46.614Z,7.00
2024-02-10T03:14:13.514Z,7.00
2024-02-10T03:16:41.140Z,7.00
2024-02-10T03:19:08.862Z,7.00
2024-02-10T03:21:38.422Z,7.00
2024-02-10T03:24:06.207Z,7.00
2024-02-10T03:26:38.074Z,7.00
2024-02-10T03:29:06.625Z,7.00
2024-02-10T03:31:33.878Z,7.00
2024-02-10T03:34:03.291Z,7.00
2024-02-10T03:36:32.475Z,7.00
2024-02-10T03:39:08.486Z,7.00
2024-02-10T03:41:35.601Z,7.00
2024-02-10T03:44:03.003Z,7.00
2024-02-10T03:46:31.993Z,7.00
2024-02-10T03:49:02.211Z,7.10
2024-02-10T03:51:30.452Z,7.10
2024-02-10T03:53:57.292Z,7.10
2024-02-10T03:56:25.225Z,7.10
2024-02-10T03:58:52.340Z,7.10
2024-02-10T04:01:19.327Z,7.10
2024-02-10T04:03:47.103Z,7.10
2024-02-10T04:06:17.330Z,7.10
2024-02-10T04:08:46.837Z,7.10
2024-02-10T04:11:20.760Z,7.10
2024-02-10T04:13:48.117Z,7.10
2024-02-10T04:16:15.073Z,7.10
2024-02-10T04:18:43.253Z,7.10
2024-02-10T04:21:10.858Z,7.10
2024-02-10T04:23:41.490Z,7.10
2024-02-10T04:26:08.879Z,7.20
2024-02-10T04:28:36.327Z,7.20
2024-02-10T04:31:04.704Z,7.20
2024-02-10T04:33:32.121Z,7.20
2024-02-10T04:35:59.167Z,7.20
2024-02-10T04:38:26.090Z,7.20
2024-02-10T04:40:53.187Z,7.20
2024-02-10T04:43:21.056Z,7.20
2024-02-10T04:45:50.286Z,7.20
2024-02-10T04:48:19.813Z,7.20
2024-02-10T04:50:46.940Z,7.20
2024-02-10T04:53:16.622Z,7.30
2024-02-10T04:55:43.686Z,7.20
2024-02-10T04:58:14.029Z,7.20
2024-02-10T05:00:41.536Z,7.20
2024-02-10T05:03:08.488Z,7.20
2024-02-10T05:05:35.547Z,7.20
2024-02-10T05:08:02.573Z,7.20
2024-02-10T05:10:29.539Z,7.20
2024-02-10T05:12:57.664Z,7.20
2024-02-10T05:15:26.181Z,7.20
2024-02-10T05:17:54.272Z,7.20
2024-02-10T05:20:26.575Z,7.20
2024-02-10T05:22:55.488Z,7.20
2024-02-10T05:25:24.387Z,7.30
2024-02-10T05:27:52.150Z,7.20
2024-02-10T05:30:25.840Z,7.20
2024-02-10T05:32:54.133Z,7.20
2024-02-10T05:35:22.129Z,7.20
2024-02-10T05:37:57.926Z,7.30
2024-02-10T05:40:26.839Z,7.20
2024-02-10T05:42:58.098Z,7.20
2024-02-10T05:45:24.945Z,7.20
2024-02-10T05:47:53.051Z,7.20
2024-02-10T05:50:25.165Z,7.30
2024-02-10T05:52:59.716Z,7.30
2024-02-10T05:55:28.601Z,7.20
2024-02-10T05:58:07.420Z,7.30
2024-02-10T06:00:34.717Z,7.30
2024-02-10T06:03:04.262Z,7.30
2024-02-10T06:05:31.784Z,7.30
2024-02-10T06:07:59.227Z,7.30
2024-02-10T06:10:26.450Z,7.30
2024-02-10T06:12:54.651Z,7.30
2024-02-10T06:15:22.107Z,7.30
2024-02-10T06:17:57.526Z,7.30
2024-02-10T06:20:25.578Z,7.30
2024-02-10T06:22:54.509Z,7.40
2024-02-10T06:25:29.681Z,7.40
2024-02-10T06:27:59.041Z,7.40
2024-02-10T06:30:31.881Z,7.30
2024-02-10T06:32:59.619Z,7.40
2024-02-10T06:35:27.791Z,7.40
2024-02-10T06:37:56.401Z,7.40
2024-02-10T06:40:24.514Z,7.30
2024-02-10T06:42:54.422Z,7.40
2024-02-10T06:45:29.986Z,7.30
2024-02-10T06:47:58.512Z,7.30
2024-02-10T06:50:26.502Z,7.30
2024-02-10T06:52:54.945Z,7.30
2024-02-10T06:55:24.472Z,7.30
2024-02-10T06:57:54.086Z,7.30
2024-02-10T07:00:21.421Z,7.30
2024-02-10T07:02:48.961Z,7.30
2024-02-10T07:05:20.887Z,7.40
2024-02-10T07:07:49.921Z,7.40
2024-02-10T07:10:21.551Z,7.40
2024-02-10T07:12:58.237Z,7.40
2024-02-10T07:15:31.641Z,7.50
2024-02-10T07:17:59.502Z,7.40
2024-02-10T07:20:27.222Z,7.50
2024-02-10T07:22:58.639Z,7.40
2024-02-10T07:25:30.417Z,7.50
2024-02-10T07:28:02.773Z,7.50
2024-02-10T07:30:32.201Z,7.50
2024-02-10T07:33:04.885Z,7.50
2024-02-10T07:35:33.445Z,7.50
2024-02-10T07:38:00.535Z,7.50
2024-02-10T07:40:27.498Z,7.50
2024-02-10T07:42:54.453Z,7.50
2024-02-10T07:45:23.947Z,7.50
2024-02-10T07:47:51.709Z,7.50
2024-02-10T07:50:18.748Z,7.50
2024-02-10T07:52:49.140Z,7.50
2024-02-10T07:55:17.876Z,7.50
2024-02-10T07:57:44.917Z,7.60
2024-02-10T08:00:12.193Z,7.60
2024-02-10T08:02:39.256Z,7.60
2024-02-10T08:05:06.761Z,7.60
2024-02-10T08:07:34.686Z,7.60
2024-02-10T08:10:02.550Z,7.70
2024-02-10T08:12:31.394Z,7.60
2024-02-10T08:14:59.199Z,7.70
2024-02-10T08:17:33.139Z,7.70
2024-02-10T08:20:01.270Z,7.70
2024-02-10T08:22:32.331Z,7.70
2024-02-10T08:25:00.627Z,7.70
2024-02-10T08:27:30.497Z,7.80
2024-02-10T08:29:59.774Z,7.80
2024-02-10T08:32:29.526Z,7.80
2024-02-10T08:34:56.947Z,7.90
2024-02-10T08:37:23.977Z,7.90
2024-02-10T08:39:50.824Z,7.90
2024-02-10T08:42:18.101Z,7.90
2024-02-10T08:44:48.179Z,7.90
2024-02-10T08:47:16.617Z,7.90
2024-02-10T08:49:43.921Z,7.90
2024-02-10T08:52:22.001Z,7.90
2024-02-10T08:54:49.980Z,7.90
2024-02-10T08:57:18.176Z,7.90
2024-02-10T08:59:50.367Z,8.00
2024-02-10T09:02:23.798Z,8.00
2024-02-10T09:04:52.620Z,8.00
2024-02-10T09:07:20.550Z,8.10
2024-02-10T09:09:47.677Z,8.10
2024-02-10T09:12:14.644Z,8.10
2024-02-10T09:14:42.066Z,8.10
2024-02-10T09:17:09.075Z,8.20
2024-02-10T09:19:36.820Z,8.20
2024-02-10T09:22:07.391Z,8.20
2024-02-10T09:24:36.260Z,8.30
2024-02-10T09:27:05.588Z,8.30
2024-02-10T09:29:32.652Z,8.30
2024-02-10T09:32:01.975Z,8.40
2024-02-10T09:34:30.221Z,8.40
2024-02-10T09:37:00.474Z,8.40
2024-02-10T09:39:27.743Z,8.40
2024-02-10T09:42:02.887Z,8.50
2024-02-10T09:44:31.266Z,8.50
2024-02-10T09:47:01.488Z,8.50
2024-02-10T09:49:30.037Z,8.60
2024-02-10T09:51:57.613Z,8.60
2024-02-10T09:54:24.607Z,8.60
2024-02-10T09:56:52.836Z,8.70
2024-02-10T09:59:29.972Z,8.70
2024-02-10T10:02:00.206Z,8.70
2024-02-10T10:04:28.617Z,8.80
2024-02-10T10:06:57.554Z,8.80
2024-02-10T10:09:24.646Z,8.80
2024-02-10T10:11:52.643Z,8.80
2024-02-10T10:14:21.263Z,8.90
2024-02-10T10:17:03.895Z,8.90
2024-02-10T10:19:31.514Z,8.90
2024-02-10T10:21:59.317Z,8.90
2024-02-10T10:24:28.473Z,8.90
2024-02-10T10:26:56.700Z,8.90
2024-02-10T10:29:24.192Z,9.00
2024-02-10T10:31:54.998Z,9.00
2024-02-10T10:34:24.078Z,9.00
2024-02-10T10:36:54.214Z,9.00
2024-02-10T10:39:23.628Z,9.10
2024-02-10T10:41:53.199Z,9.10
2024-02-10T10:44:22.738Z,9.10
2024-02-10T10:46:53.283Z,9.10
2024-02-10T10:49:20.550Z,9.10
2024-02-10T10:52:03.604Z,9.00
2024-02-10T10:54:35.981Z,9.10
2024-02-10T10:57:09.347Z,9.10
2024-02-10T10:59:38.523Z,9.10
2024-02-10T11:02:09.439Z,9.10
2024-02-10T11:04:36.828Z,9.10
2024-02-10T11:07:12.998Z,9.10
2024-02-10T11:09:49.779Z,9.10
2024-02-10T11:12:16.967Z,9.10
2024-02-10T11:14:54.900Z,9.00
2024-02-10T11:17:22.186Z,9.10
2024-02-10T11:20:02.802Z,9.10
2024-02-10T11:22:41.613Z,9.10
2024-02-10T11:25:16.683Z,9.20
2024-02-10T11:27:47.575Z,9.20
2024-02-10T11:30:16.673Z,9.20
2024-02-10T11:32:50.330Z,9.20
2024-02-10T11:35:17.661Z,9.30
2024-02-10T11:37:45.094Z,9.30
2024-02-10T11:40:16.989Z,9.30
2024-02-10T11:42:44.768Z,9.30
2024-02-10T11:45:12.121Z,9.30
2024-02-10T11:47:39.156Z,9.40
2024-02-10T11:50:08.007Z,9.40
2024-02-10T11:52:37.818Z,9.40
2024-02-10T11:55:05.611Z,9.40
2024-02-10T11:57:32.685Z,9.40
2024-02-10T11:59:59.985Z,9.40
2024-02-10T12:02:27.919Z,9.50
2024-02-10T12:04:55.263Z,9.50
2024-02-10T12:07:22.470Z,9.60
2024-02-10T12:09:49.468Z,9.60
2024-02-10T12:12:17.354Z,9.60
2024-02-10T12:14:45.628Z,9.70
2024-02-10T12:17:17.505Z,9.70
2024-02-10T12:19:44.656Z,9.70
2024-02-10T12:22:12.033Z,9.70
2024-02-10T12:24:44.732Z,9.70
2024-02-10T12:27:13.847Z,9.70
2024-02-10T12:29:40.965Z,9.70
2024-02-10T12:32:10.589Z,9.80
2024-02-10T12:34:37.716Z,9.70
2024-02-10T12:37:05.086Z,9.70
2024-02-10T12:39:33.219Z,9.70
2024-02-10T12:42:02.670Z,9.70
2024-02-10T12:44:29.582Z,9.70
2024-02-10T12:46:57.914Z,9.80
2024-02-10T12:49:27.149Z,9.90
2024-02-10T12:51:56.547Z,9.90
2024-02-10T12:54:29.008Z,9.90
2024-02-10T12:56:57.356Z,10.00
2024-02-10T12:59:25.235Z,10.00
2024-02-10T13:01:52.333Z,10.00
2024-02-10T13:04:22.307Z,10.10
2024-02-10T13:06:50.464Z,10.10
2024-02-10T13:09:17.423Z,10.10
2024-02-10T13:11:44.361Z,10.20
2024-02-10T13:14:12.857Z,10.20
2024-02-10T13:16:41.629Z,10.20
2024-02-10T13:19:15.331Z,10.20
2024-02-10T13:21:45.116Z,10.20
2024-02-10T13:24:12.057Z,10.20
2024-02-10T13:26:39.093Z,10.20
2024-02-10T13:29:06.140Z,10.20
2024-02-10T13:31:36.245Z,10.20
2024-02-10T13:34:11.682Z,10.10
2024-02-10T13:36:47.402Z,10.20
2024-02-10T13:39:33.356Z,10.20
2024-02-10T13:42:18.800Z,10.10
2024-02-10T13:45:04.132Z,10.10
2024-02-10T13:47:50.116Z,10.10
2024-02-10T13:50:35.798Z,10.20
2024-02-10T13:53:21.226Z,10.20
2024-02-10T13:56:06.691Z,10.10
2024-02-10T13:58:33.530Z,10.20
2024-02-10T14:01:00.541Z,10.20
2024-02-10T14:03:33.592Z,10.20
2024-02-10T14:06:09.727Z,10.20
2024-02-10T14:08:43.574Z,10.20
2024-02-10T14:11:21.452Z,10.20
2024-02-10T14:13:53.119Z,10.30
2024-02-10T14:16:29.363Z,10.40
2024-02-10T14:19:05.785Z,10.40
2024-02-10T14:21:35.832Z,10.40
2024-02-10T14:24:04.509Z,10.40
2024-02-10T14:26:43.653Z,10.50
2024-02-10T14:29:21.436Z,10.50
2024-02-10T14:31:49.583Z,10.50
2024-02-10T14:34:37.893Z,10.50
2024-02-10T14:37:25.658Z,10.50
2024-02-10T14:40:01.184Z,10.50
2024-02-10T14:42:28.615Z,10.50
2024-02-10T14:44:55.744Z,10.50
2024-02-10T14:47:22.785Z,10.50
2024-02-10T14:49:49.806Z,10.50
2024-02-10T14:52:16.751Z,10.50
2024-02-10T14:54:44.031Z,10.50
2024-02-10T14:57:10.902Z,10.50
2024-02-10T14:59:37.805Z,10.50
2024-02-10T15:02:04.982Z,10.60
2024-02-10T15:04:32.156Z,10.50
2024-02-10T15:07:02.389Z,10.50
2024-02-10T15:09:29.383Z,10.50
2024-02-10T15:11:56.260Z,10.50
2024-02-10T15:14:23.109Z,10.50
2024-02-10T15:16:50.306Z,10.60
2024-02-10T15:19:18.453Z,10.60
2024-02-10T15:21:45.356Z,10.60
2024-02-10T15:24:13.519Z,10.60
2024-02-10T15:26:42.652Z,10.60
2024-02-10T15:29:09.661Z,10.60
2024-02-10T15:31:36.617Z,10.60
2024-02-10T15:34:05.188Z,10.60
2024-02-10T15:36:37.246Z,10.60
2024-02-10T15:39:06.941Z,10.60
2024-02-10T15:41:35.244Z,10.60
2024-02-10T15:44:09.304Z,10.60
2024-02-10T15:46:38.086Z,10.60
2024-02-10T15:49:09.895Z,10.60
2024-02-10T15:51:39.328Z,10.60
2024-02-10T15:54:08.912Z,10.60
2024-02-10T15:56:43.315Z,10.60
2024-02-10T15:59:10.375Z,10.60
2024-02-10T16:01:37.401Z,10.60
2024-02-10T16:04:09.692Z,10.60
2024-02-10T16:06:40.298Z,10.60
2024-02-10T16:09:09.695Z,10.60
2024-02-10T16:11:36.791Z,10.60
2024-02-10T16:14:03.799Z,10.60
2024-02-10T16:16:32.125Z,10.60
2024-02-10T16:19:00.773Z,10.60
2024-02-10T16:21:29.276Z,10.60
2024-02-10T16:24:00.264Z,10.60
2024-02-10T16:26:27.595Z,10.60
2024-02-10T16:28:56.870Z,10.60
2024-02-10T16:31:25.828Z,10.60
2024-02-10T16:33:54.618Z,10.60
2024-02-10T16:36:25.326Z,10.60
2024-02-10T16:38:52.735Z,10.60
2024-02-10T16:41:20.944Z,10.60
2024-02-10T16:43:47.943Z,10.60
2024-02-10T16:46:18.417Z,10.50
2024-02-10T16:48:49.389Z,10.60
2024-02-10T16:51:34.690Z,10.60
2024-02-10T16:54:06.979Z,10.60
2024-02-10T16:56:39.356Z,10.60
2024-02-10T16:59:06.415Z,10.60
2024-02-10T17:01:33.570Z,10.50
2024-02-10T17:04:05.076Z,10.50
2024-02-10T17:06:37.222Z,10.50
2024-02-10T17:09:05.854Z,10.50
2024-02-10T17:11:34.906Z,10.50
2024-02-10T17:14:02.296Z,10.50
2024-02-10T17:16:29.823Z,10.50
2024-02-10T17:18:57.775Z,10.50
2024-02-10T17:21:25.399Z,10.50
2024-02-10T17:23:52.965Z,10.50
2024-02-10T17:26:20.995Z,10.50
2024-02-10T17:28:48.064Z,10.50
2024-02-10T17:31:15.470Z,10.50
2024-02-10T17:33:43.188Z,10.50
2024-02-10T17:36:17.472Z,10.50
2024-02-10T17:38:44.651Z,10.50
2024-02-10T17:41:12.474Z,10.50
2024-02-10T17:43:40.191Z,10.50
2024-02-10T17:46:07.334Z,10.50
2024-02-10T17:48:35.560Z,10.50
2024-02-10T17:51:02.729Z,10.50
2024-02-10T17:53:30.780Z,10.50
2024-02-10T17:56:01.576Z,10.50
2024-02-10T17:58:32.631Z,10.50
2024-02-10T18:01:00.921Z,10.50
2024-02-10T18:03:32.657Z,10.50
2024-02-10T18:06:01.990Z,10.50
2024-02-10T18:08:30.766Z,10.50
2024-02-10T18:10:57.844Z,10.50
2024-02-10T18:13:25.459Z,10.50
2024-02-10T18:15:52.568Z,10.50
2024-02-10T18:18:20.404Z,10.50
2024-02-10T18:20:48.170Z,10.50
2024-02-10T18:23:15.315Z,10.50
2024-02-10T18:25:45.385Z,10.50
2024-02-10T18:28:14.899Z,10.50
2024-02-10T18:30:46.327Z,10.50
2024-02-10T18:33:16.049Z,10.50
2024-02-10T18:35:44.491Z,10.50
2024-02-10T18:38:13.162Z,10.50
2024-02-10T18:40:40.678Z,10.50
2024-02-10T18:43:07.696Z,10.50
2024-02-10T18:45:35.651Z,10.50
2024-02-10T18:48:03.542Z,10.40
2024-02-10T18:50:31.296Z,10.40
2024-02-10T18:52:58.757Z,10.40
2024-02-10T18:55:26.516Z,10.40
2024-02-10T18:57:53.647Z,10.40
2024-02-10T19:00:21.117Z,10.40
2024-02-10T19:02:49.485Z,10.40
2024-02-10T19:05:17.388Z,10.40
2024-02-10T19:07:45.620Z,10.40
2024-02-10T19:10:12.730Z,10.40
2024-02-10T19:12:39.927Z,10.40
2024-02-10T19:15:11.388Z,10.40
2024-02-10T19:17:39.073Z,10.40
2024-02-10T19:20:08.030Z,10.40
2024-02-10T19:22:36.866Z,10.40
2024-02-10T19:25:08.701Z,10.40
2024-02-10T19:27:36.484Z,10.40
2024-02-10T19:30:10.641Z,10.30
2024-02-10T19:32:39.748Z,10.30
2024-02-10T19:35:13.768Z,10.30
2024-02-10T19:37:47.093Z,10.30
2024-02-10T19:40:19.461Z,10.30
2024-02-10T19:42:47.761Z,10.30
2024-02-10T19:45:16.543Z,10.30
2024-02-10T19:47:47.681Z,10.40
2024-02-10T19:50:18.741Z,10.30
2024-02-10T19:52:49.205Z,10.40
2024-02-10T19:55:20.649Z,10.40
2024-02-10T19:57:47.909Z,10.40
2024-02-10T20:00:15.168Z,10.40
2024-02-10T20:02:45.481Z,10.30
2024-02-10T20:05:18.603Z,10.30
2024-02-10T20:07:45.823Z,10.30
2024-02-10T20:10:19.869Z,10.30
2024-02-10T20:12:47.633Z,10.30
2024-02-10T20:15:18.816Z,10.30
2024-02-10T20:17:52.540Z,10.30
2024-02-10T20:20:20.675Z,10.30
2024-02-10T20:22:49.415Z,10.30
2024-02-10T20:25:16.848Z,10.30
2024-02-10T20:27:46.287Z,10.30
2024-02-10T20:30:14.554Z,10.30
2024-02-10T20:32:41.525Z,10.30
2024-02-10T20:35:11.685Z,10.30
2024-02-10T20:37:40.198Z,10.30
2024-02-10T20:40:13.321Z,10.30
2024-02-10T20:42:41.117Z,10.30
2024-02-10T20:45:08.493Z,10.30
2024-02-10T20:47:38.519Z,10.30
2024-02-10T20:50:06.597Z,10.30
2024-02-10T20:52:34.120Z,10.30
2024-02-10T20:55:01.072Z,10.30
2024-02-10T20:57:30.349Z,10.30
2024-02-10T20:59:58.650Z,10.30
2024-02-10T21:02:28.419Z,10.30
2024-02-10T21:04:55.678Z,10.30
2024-02-10T21:07:24.842Z,10.30
2024-02-10T21:09:51.834Z,10.30
2024-02-10T21:12:18.754Z,10.30
2024-02-10T21:14:45.748Z,10.30
2024-02-10T21:17:12.724Z,10.30
2024-02-10T21:19:40.042Z,10.30
2024-02-10T21:22:07.354Z,10.30
2024-02-10T21:24:34.326Z,10.30
2024-02-10T21:27:01.319Z,10.30
2024-02-10T21:29:28.207Z,10.30
2024-02-10T21:31:55.231Z,10.30
2024-02-10T21:34:22.160Z,10.30
2024-02-10T21:36:50.486Z,10.30
2024-02-10T21:39:18.763Z,10.30
2024-02-10T21:41:48.174Z,10.30
2024-02-10T21:44:18.226Z,10.40
2024-02-10T21:46:45.185Z,10.40
2024-02-10T21:49:14.481Z,10.30
2024-02-10T21:51:53.888Z,10.30
2024-02-10T21:54:25.726Z,10.30
2024-02-10T21:56:54.420Z,10.30
2024-02-10T21:59:21.362Z,10.30
2024-02-10T22:01:50.839Z,10.30
2024-02-10T22:04:17.973Z,10.30
2024-02-10T22:06:44.937Z,10.30
2024-02-10T22:09:12.054Z,10.30
2024-02-10T22:11:39.105Z,10.30
2024-02-10T22:14:08.321Z,10.30
2024-02-10T22:16:35.462Z,10.30
2024-02-10T22:19:03.433Z,10.30
2024-02-10T22:21:30.679Z,10.30
2024-02-10T22:23:58.542Z,10.30
2024-02-10T22:26:30.425Z,10.30
2024-02-10T22:28:59.026Z,10.30
2024-02-10T22:31:31.503Z,10.30
2024-02-10T22:34:00.115Z,10.30
2024-02-10T22:36:28.227Z,10.30
2024-02-10T22:38:56.959Z,10.30
2024-02-10T22:41:24.729Z,10.30
2024-02-10T22:43:51.820Z,10.30
2024-02-10T22:46:18.718Z,10.30
2024-02-10T22:48:45.706Z,10.30
2024-02-10T22:51:16.884Z,10.30
2024-02-10T22:53:43.834Z,10.30
2024-02-10T22:56:12.604Z,10.30
2024-02-10T22:58:39.929Z,10.20
2024-02-10T23:01:07.176Z,10.20
2024-02-10T23:03:34.305Z,10.20
2024-02-10T23:06:02.476Z,10.30
2024-02-10T23:08:33.075Z,10.30
2024-02-10T23:11:01.456Z,10.30
2024-02-10T23:13:28.387Z,10.30
2024-02-10T23:15:56.232Z,10.30
2024-02-10T23:18:25.658Z,10.30
2024-02-10T23:20:53.124Z,10.20
2024-02-10T23:23:28.864Z,10.20
2024-02-10T23:25:57.260Z,10.20
2024-02-10T23:28:24.295Z,10.20
2024-02-10T23:30:53.071Z,10.20
2024-02-10T23:33:21.709Z,10.20
2024-02-10T23:35:49.052Z,10.20
2024-02-10T23:38:16.542Z,10.20
2024-02-10T23:40:47.276Z,10.20
2024-02-10T23:43:14.383Z,10.20
2024-02-10T23:45:42.667Z,10.20
2024-02-10T23:48:13.327Z,10.20
2024-02-10T23:50:40.433Z,10.20
2024-02-10T23:53:11.257Z,10.20
2024-02-10T23:55:39.344Z,10.20
2024-02-10T23:58:06.431Z,10.20
